sensor_id;sensor_type;location;lat;lon;timestamp;P1;durP1;ratioP1;P2;durP2;ratioP2
1601;SDS011;794;48.592;9.634;2023-11-21T00:01:25;4.50;;;3.30;;
1601;SDS011;794;48.592;9.634;2023-11-21T00:03:54;6.33;;;3.77;;
1601;SDS011;794;48.592;9.634;2023-11-21T00:06:21;4.63;;;2.60;;
1601;SDS011;794;48.592;9.634;2023-11-21T00:08:49;6.07;;;3.67;;
1601;SDS011;794;48.592;9.634;2023-11-21T00:11:19;10.00;;;3.07;;
1601;SDS011;794;48.592;9.634;2023-11-21T00:13:46;9.57;;;3.27;;
1601;SDS011;794;48.592;9.634;2023-11-21T00:16:13;5.60;;;2.60;;
1601;SDS011;794;48.592;9.634;2023-11-21T00:18:54;4.67;;;2.40;;
1601;SDS011;794;48.592;9.634;2023-11-21T00:21:23;3.20;;;1.80;;
1601;SDS011;794;48.592;9.634;2023-11-21T00:23:52;3.33;;;2.30;;
1601;SDS011;794;48.592;9.634;2023-11-21T00:26:22;3.10;;;1.43;;
1601;SDS011;794;48.592;9.634;2023-11-21T00:29:01;3.53;;;1.70;;
1601;SDS011;794;48.592;9.634;2023-11-21T00:31:44;3.50;;;2.30;;
1601;SDS011;794;48.592;9.634;2023-11-21T00:34:14;3.63;;;1.97;;
1601;SDS011;794;48.592;9.634;2023-11-21T00:36:42;4.70;;;2.10;;
1601;SDS011;794;48.592;9.634;2023-11-21T00:39:12;2.13;;;1.30;;
1601;SDS011;794;48.592;9.634;2023-11-21T00:41:40;3.83;;;1.77;;
1601;SDS011;794;48.592;9.634;2023-11-21T00:44:12;1.63;;;1.30;;
1601;SDS011;794;48.592;9.634;2023-11-21T00:46:45;3.77;;;1.40;;
1601;SDS011;794;48.592;9.634;2023-11-21T00:49:15;4.83;;;1.20;;
1601;SDS011;794;48.592;9.634;2023-11-21T00:51:42;1.50;;;1.17;;
1601;SDS011;794;48.592;9.634;2023-11-21T00:54:10;1.40;;;1.30;;
1601;SDS011;794;48.592;9.634;2023-11-21T00:56:45;2.13;;;1.60;;
1601;SDS011;794;48.592;9.634;2023-11-21T00:59:13;4.17;;;2.43;;
1601;SDS011;794;48.592;9.634;2023-11-21T01:01:40;5.77;;;2.13;;
1601;SDS011;794;48.592;9.634;2023-11-21T01:04:08;3.60;;;1.00;;
1601;SDS011;794;48.592;9.634;2023-11-21T01:06:35;5.97;;;2.17;;
1601;SDS011;794;48.592;9.634;2023-11-21T01:09:04;2.97;;;1.50;;
1601;SDS011;794;48.592;9.634;2023-11-21T01:11:35;3.43;;;1.47;;
1601;SDS011;794;48.592;9.634;2023-11-21T01:14:07;4.57;;;1.33;;
1601;SDS011;794;48.592;9.634;2023-11-21T01:16:45;1.50;;;1.23;;
1601;SDS011;794;48.592;9.634;2023-11-21T01:19:13;1.17;;;0.87;;
1601;SDS011;794;48.592;9.634;2023-11-21T01:21:42;4.60;;;2.70;;
1601;SDS011;794;48.592;9.634;2023-11-21T01:24:09;2.00;;;1.80;;
1601;SDS011;794;48.592;9.634;2023-11-21T01:26:37;5.10;;;2.03;;
1601;SDS011;794;48.592;9.634;2023-11-21T01:29:09;2.53;;;2.20;;
1601;SDS011;794;48.592;9.634;2023-11-21T01:31:38;4.00;;;1.93;;
1601;SDS011;794;48.592;9.634;2023-11-21T01:34:05;4.33;;;2.47;;
1601;SDS011;794;48.592;9.634;2023-11-21T01:36:33;5.67;;;1.80;;
1601;SDS011;794;48.592;9.634;2023-11-21T01:39:03;2.90;;;1.60;;
1601;SDS011;794;48.592;9.634;2023-11-21T01:41:33;1.40;;;1.00;;
1601;SDS011;794;48.592;9.634;2023-11-21T01:44:02;5.10;;;0.90;;
1601;SDS011;794;48.592;9.634;2023-11-21T01:46:36;4.80;;;1.30;;
1601;SDS011;794;48.592;9.634;2023-11-21T01:49:06;1.10;;;1.00;;
1601;SDS011;794;48.592;9.634;2023-11-21T01:51:34;1.90;;;1.00;;
1601;SDS011;794;48.592;9.634;2023-11-21T01:54:03;3.57;;;1.00;;
1601;SDS011;794;48.592;9.634;2023-11-21T01:56:31;1.53;;;1.27;;
1601;SDS011;794;48.592;9.634;2023-11-21T01:59:00;3.30;;;0.93;;
1601;SDS011;794;48.592;9.634;2023-11-21T02:01:34;0.93;;;0.80;;
1601;SDS011;794;48.592;9.634;2023-11-21T02:04:03;1.93;;;1.13;;
1601;SDS011;794;48.592;9.634;2023-11-21T02:06:33;3.07;;;1.20;;
1601;SDS011;794;48.592;9.634;2023-11-21T02:09:03;1.90;;;1.17;;
1601;SDS011;794;48.592;9.634;2023-11-21T02:11:41;3.80;;;0.90;;
1601;SDS011;794;48.592;9.634;2023-11-21T02:14:09;2.40;;;1.20;;
1601;SDS011;794;48.592;9.634;2023-11-21T02:16:37;1.60;;;1.50;;
1601;SDS011;794;48.592;9.634;2023-11-21T02:19:12;1.93;;;1.77;;
1601;SDS011;794;48.592;9.634;2023-11-21T02:21:43;1.90;;;1.20;;
1601;SDS011;794;48.592;9.634;2023-11-21T02:24:12;2.40;;;1.00;;
1601;SDS011;794;48.592;9.634;2023-11-21T02:26:40;1.90;;;0.97;;
1601;SDS011;794;48.592;9.634;2023-11-21T02:29:08;2.80;;;1.10;;
1601;SDS011;794;48.592;9.634;2023-11-21T02:31:37;1.20;;;0.93;;
1601;SDS011;794;48.592;9.634;2023-11-21T02:34:13;3.27;;;0.90;;
1601;SDS011;794;48.592;9.634;2023-11-21T02:36:43;2.20;;;1.17;;
1601;SDS011;794;48.592;9.634;2023-11-21T02:39:10;3.10;;;1.10;;
1601;SDS011;794;48.592;9.634;2023-11-21T02:41:39;2.80;;;1.10;;
1601;SDS011;794;48.592;9.634;2023-11-21T02:44:07;2.17;;;1.07;;
1601;SDS011;794;48.592;9.634;2023-11-21T02:46:35;1.43;;;0.93;;
1601;SDS011;794;48.592;9.634;2023-11-21T02:49:04;3.53;;;2.00;;
1601;SDS011;794;48.592;9.634;2023-11-21T02:51:35;8.13;;;1.40;;
1601;SDS011;794;48.592;9.634;2023-11-21T02:54:05;1.83;;;1.00;;
1601;SDS011;794;48.592;9.634;2023-11-21T02:56:36;1.00;;;0.73;;
1601;SDS011;794;48.592;9.634;2023-11-21T02:59:06;1.60;;;0.90;;
1601;SDS011;794;48.592;9.634;2023-11-21T03:01:37;5.77;;;0.97;;
1601;SDS011;794;48.592;9.634;2023-11-21T03:04:05;2.40;;;1.10;;
1601;SDS011;794;48.592;9.634;2023-11-21T03:06:32;4.60;;;1.20;;
1601;SDS011;794;48.592;9.634;2023-11-21T03:08:59;2.90;;;1.03;;
1601;SDS011;794;48.592;9.634;2023-11-21T03:11:28;1.70;;;0.70;;
1601;SDS011;794;48.592;9.634;2023-11-21T03:13:57;2.50;;;1.00;;
1601;SDS011;794;48.592;9.634;2023-11-21T03:16:26;1.73;;;0.87;;
1601;SDS011;794;48.592;9.634;2023-11-21T03:18:54;1.10;;;0.90;;
1601;SDS011;794;48.592;9.634;2023-11-21T03:21:23;2.10;;;0.80;;
1601;SDS011;794;48.592;9.634;2023-11-21T03:23:51;3.70;;;1.13;;
1601;SDS011;794;48.592;9.634;2023-11-21T03:26:21;2.90;;;0.80;;
1601;SDS011;794;48.592;9.634;2023-11-21T03:28:49;1.33;;;1.00;;
1601;SDS011;794;48.592;9.634;2023-11-21T03:31:18;1.00;;;1.00;;
1601;SDS011;794;48.592;9.634;2023-11-21T03:33:47;2.60;;;1.53;;
1601;SDS011;794;48.592;9.634;2023-11-21T03:36:15;1.00;;;0.77;;
1601;SDS011;794;48.592;9.634;2023-11-21T03:38:53;3.30;;;1.30;;
1601;SDS011;794;48.592;9.634;2023-11-21T03:41:22;1.43;;;0.80;;
1601;SDS011;794;48.592;9.634;2023-11-21T03:43:50;2.40;;;1.00;;
1601;SDS011;794;48.592;9.634;2023-11-21T03:46:17;3.03;;;0.80;;
1601;SDS011;794;48.592;9.634;2023-11-21T03:49:00;0.80;;;0.73;;
1601;SDS011;794;48.592;9.634;2023-11-21T03:51:28;2.93;;;0.77;;
1601;SDS011;794;48.592;9.634;2023-11-21T03:53:56;1.47;;;0.70;;
1601;SDS011;794;48.592;9.634;2023-11-21T03:56:26;0.80;;;0.80;;
1601;SDS011;794;48.592;9.634;2023-11-21T03:58:53;3.33;;;0.70;;
1601;SDS011;794;48.592;9.634;2023-11-21T04:01:26;3.93;;;0.80;;
1601;SDS011;794;48.592;9.634;2023-11-21T04:04:07;1.43;;;0.90;;
1601;SDS011;794;48.592;9.634;2023-11-21T04:06:34;1.63;;;1.20;;
1601;SDS011;794;48.592;9.634;2023-11-21T04:09:03;1.87;;;1.10;;
1601;SDS011;794;48.592;9.634;2023-11-21T04:11:30;1.07;;;0.90;;
1601;SDS011;794;48.592;9.634;2023-11-21T04:14:01;2.53;;;2.23;;
1601;SDS011;794;48.592;9.634;2023-11-21T04:16:34;11.40;;;2.47;;
1601;SDS011;794;48.592;9.634;2023-11-21T04:19:01;1.27;;;1.07;;
1601;SDS011;794;48.592;9.634;2023-11-21T04:21:44;1.10;;;0.90;;
1601;SDS011;794;48.592;9.634;2023-11-21T04:24:11;1.20;;;1.10;;
1601;SDS011;794;48.592;9.634;2023-11-21T04:26:38;1.70;;;1.03;;
1601;SDS011;794;48.592;9.634;2023-11-21T04:29:06;2.80;;;0.90;;
1601;SDS011;794;48.592;9.634;2023-11-21T04:31:33;0.73;;;0.60;;
1601;SDS011;794;48.592;9.634;2023-11-21T04:34:02;1.20;;;1.10;;
1601;SDS011;794;48.592;9.634;2023-11-21T04:36:30;0.83;;;0.60;;
1601;SDS011;794;48.592;9.634;2023-11-21T04:39:01;1.27;;;0.60;;
1601;SDS011;794;48.592;9.634;2023-11-21T04:41:31;0.93;;;0.70;;
1601;SDS011;794;48.592;9.634;2023-11-21T04:43:58;2.03;;;0.87;;
1601;SDS011;794;48.592;9.634;2023-11-21T04:46:30;0.60;;;0.60;;
1601;SDS011;794;48.592;9.634;2023-11-21T04:48:57;2.17;;;0.57;;
1601;SDS011;794;48.592;9.634;2023-11-21T04:51:24;2.20;;;0.93;;
1601;SDS011;794;48.592;9.634;2023-11-21T04:53:52;0.73;;;0.73;;
1601;SDS011;794;48.592;9.634;2023-11-21T04:56:22;1.07;;;0.70;;
1601;SDS011;794;48.592;9.634;2023-11-21T04:58:49;0.60;;;0.60;;
1601;SDS011;794;48.592;9.634;2023-11-21T05:01:16;1.80;;;0.60;;
1601;SDS011;794;48.592;9.634;2023-11-21T05:03:44;2.97;;;0.77;;
1601;SDS011;794;48.592;9.634;2023-11-21T05:06:13;0.70;;;0.60;;
1601;SDS011;794;48.592;9.634;2023-11-21T05:08:42;1.13;;;0.70;;
1601;SDS011;794;48.592;9.634;2023-11-21T05:11:09;1.83;;;0.80;;
1601;SDS011;794;48.592;9.634;2023-11-21T05:13:38;1.00;;;0.87;;
1601;SDS011;794;48.592;9.634;2023-11-21T05:16:08;0.80;;;0.70;;
1601;SDS011;794;48.592;9.634;2023-11-21T05:18:35;0.60;;;0.60;;
1601;SDS011;794;48.592;9.634;2023-11-21T05:21:05;1.83;;;1.00;;
1601;SDS011;794;48.592;9.634;2023-11-21T05:23:33;2.37;;;0.87;;
1601;SDS011;794;48.592;9.634;2023-11-21T05:26:02;1.50;;;1.33;;
1601;SDS011;794;48.592;9.634;2023-11-21T05:28:29;1.23;;;0.80;;
1601;SDS011;794;48.592;9.634;2023-11-21T05:31:00;2.60;;;1.53;;
1601;SDS011;794;48.592;9.634;2023-11-21T05:33:28;12.60;;;6.70;;
1601;SDS011;794;48.592;9.634;2023-11-21T05:35:55;9.20;;;5.80;;
1601;SDS011;794;48.592;9.634;2023-11-21T05:38:22;8.73;;;5.30;;
1601;SDS011;794;48.592;9.634;2023-11-21T05:40:51;6.73;;;4.43;;
1601;SDS011;794;48.592;9.634;2023-11-21T05:43:19;6.30;;;3.20;;
1601;SDS011;794;48.592;9.634;2023-11-21T05:45:46;3.53;;;3.20;;
1601;SDS011;794;48.592;9.634;2023-11-21T05:48:15;2.37;;;2.07;;
1601;SDS011;794;48.592;9.634;2023-11-21T05:50:42;1.90;;;1.70;;
1601;SDS011;794;48.592;9.634;2023-11-21T05:53:10;4.30;;;3.10;;
1601;SDS011;794;48.592;9.634;2023-11-21T05:55:37;3.90;;;3.60;;
1601;SDS011;794;48.592;9.634;2023-11-21T05:58:05;3.30;;;3.00;;
1601;SDS011;794;48.592;9.634;2023-11-21T06:00:32;4.50;;;3.70;;
1601;SDS011;794;48.592;9.634;2023-11-21T06:02:59;2.20;;;2.00;;
1601;SDS011;794;48.592;9.634;2023-11-21T06:05:34;1.80;;;1.10;;
1601;SDS011;794;48.592;9.634;2023-11-21T06:08:04;0.80;;;0.80;;
1601;SDS011;794;48.592;9.634;2023-11-21T06:10:32;2.73;;;1.03;;
1601;SDS011;794;48.592;9.634;2023-11-21T06:13:02;0.80;;;0.80;;
1601;SDS011;794;48.592;9.634;2023-11-21T06:15:32;0.70;;;0.67;;
1601;SDS011;794;48.592;9.634;2023-11-21T06:18:03;1.27;;;0.80;;
1601;SDS011;794;48.592;9.634;2023-11-21T06:20:42;0.97;;;0.90;;
1601;SDS011;794;48.592;9.634;2023-11-21T06:23:09;1.20;;;1.10;;
1601;SDS011;794;48.592;9.634;2023-11-21T06:25:36;1.93;;;1.00;;
1601;SDS011;794;48.592;9.634;2023-11-21T06:28:07;1.03;;;0.70;;
1601;SDS011;794;48.592;9.634;2023-11-21T06:30:34;3.97;;;0.90;;
1601;SDS011;794;48.592;9.634;2023-11-21T06:33:01;0.70;;;0.70;;
1601;SDS011;794;48.592;9.634;2023-11-21T06:35:29;0.97;;;0.60;;
1601;SDS011;794;48.592;9.634;2023-11-21T06:38:00;0.73;;;0.67;;
1601;SDS011;794;48.592;9.634;2023-11-21T06:40:30;0.90;;;0.80;;
1601;SDS011;794;48.592;9.634;2023-11-21T06:43:00;1.40;;;0.70;;
1601;SDS011;794;48.592;9.634;2023-11-21T06:45:32;1.57;;;0.50;;
1601;SDS011;794;48.592;9.634;2023-11-21T06:48:02;2.90;;;0.70;;
1601;SDS011;794;48.592;9.634;2023-11-21T06:50:30;6.23;;;0.97;;
1601;SDS011;794;48.592;9.634;2023-11-21T06:52:59;2.20;;;0.77;;
1601;SDS011;794;48.592;9.634;2023-11-21T06:55:30;0.50;;;0.50;;
1601;SDS011;794;48.592;9.634;2023-11-21T06:57:58;0.70;;;0.70;;
1601;SDS011;794;48.592;9.634;2023-11-21T07:00:25;1.00;;;0.70;;
1601;SDS011;794;48.592;9.634;2023-11-21T07:02:55;0.60;;;0.60;;
1601;SDS011;794;48.592;9.634;2023-11-21T07:05:23;1.23;;;0.67;;
1601;SDS011;794;48.592;9.634;2023-11-21T07:08:07;0.70;;;0.70;;
1601;SDS011;794;48.592;9.634;2023-11-21T07:10:36;1.00;;;0.73;;
1601;SDS011;794;48.592;9.634;2023-11-21T07:13:03;0.83;;;0.80;;
1601;SDS011;794;48.592;9.634;2023-11-21T07:15:31;2.37;;;0.60;;
1601;SDS011;794;48.592;9.634;2023-11-21T07:18:01;0.50;;;0.50;;
1601;SDS011;794;48.592;9.634;2023-11-21T07:20:28;1.53;;;0.70;;
1601;SDS011;794;48.592;9.634;2023-11-21T07:22:56;1.47;;;0.70;;
1601;SDS011;794;48.592;9.634;2023-11-21T07:25:23;1.50;;;0.60;;
1601;SDS011;794;48.592;9.634;2023-11-21T07:27:52;4.93;;;1.90;;
1601;SDS011;794;48.592;9.634;2023-11-21T07:30:22;1.07;;;0.77;;
1601;SDS011;794;48.592;9.634;2023-11-21T07:32:50;0.50;;;0.50;;
1601;SDS011;794;48.592;9.634;2023-11-21T07:35:20;0.60;;;0.60;;
1601;SDS011;794;48.592;9.634;2023-11-21T07:37:47;0.60;;;0.50;;
1601;SDS011;794;48.592;9.634;2023-11-21T07:40:14;0.67;;;0.63;;
1601;SDS011;794;48.592;9.634;2023-11-21T07:42:42;2.67;;;0.50;;
1601;SDS011;794;48.592;9.634;2023-11-21T07:45:12;1.27;;;1.17;;
1601;SDS011;794;48.592;9.634;2023-11-21T07:47:40;0.50;;;0.50;;
1601;SDS011;794;48.592;9.634;2023-11-21T07:50:10;0.70;;;0.70;;
1601;SDS011;794;48.592;9.634;2023-11-21T07:52:38;1.03;;;0.90;;
1601;SDS011;794;48.592;9.634;2023-11-21T07:55:06;1.30;;;1.07;;
1601;SDS011;794;48.592;9.634;2023-11-21T07:57:33;1.10;;;1.00;;
1601;SDS011;794;48.592;9.634;2023-11-21T08:00:03;1.87;;;1.37;;
1601;SDS011;794;48.592;9.634;2023-11-21T08:02:33;2.47;;;1.37;;
1601;SDS011;794;48.592;9.634;2023-11-21T08:05:00;1.10;;;1.00;;
1601;SDS011;794;48.592;9.634;2023-11-21T08:07:27;13.97;;;11.17;;
1601;SDS011;794;48.592;9.634;2023-11-21T08:09:56;9.03;;;7.93;;
1601;SDS011;794;48.592;9.634;2023-11-21T08:12:23;1.53;;;1.37;;
1601;SDS011;794;48.592;9.634;2023-11-21T08:14:53;2.27;;;2.10;;
1601;SDS011;794;48.592;9.634;2023-11-21T08:17:20;2.57;;;2.37;;
1601;SDS011;794;48.592;9.634;2023-11-21T08:19:49;1.20;;;1.10;;
1601;SDS011;794;48.592;9.634;2023-11-21T08:22:19;2.60;;;1.60;;
1601;SDS011;794;48.592;9.634;2023-11-21T08:24:48;1.47;;;1.20;;
1601;SDS011;794;48.592;9.634;2023-11-21T08:27:17;1.73;;;1.63;;
1601;SDS011;794;48.592;9.634;2023-11-21T08:29:44;4.63;;;0.90;;
1601;SDS011;794;48.592;9.634;2023-11-21T08:32:11;1.10;;;1.00;;
1601;SDS011;794;48.592;9.634;2023-11-21T08:34:39;1.40;;;1.20;;
1601;SDS011;794;48.592;9.634;2023-11-21T08:37:18;1.27;;;1.17;;
1601;SDS011;794;48.592;9.634;2023-11-21T08:39:46;1.03;;;1.03;;
1601;SDS011;794;48.592;9.634;2023-11-21T08:42:14;1.10;;;1.00;;
1601;SDS011;794;48.592;9.634;2023-11-21T08:44:41;1.20;;;1.10;;
1601;SDS011;794;48.592;9.634;2023-11-21T08:47:11;1.27;;;1.07;;
1601;SDS011;794;48.592;9.634;2023-11-21T08:49:41;0.93;;;0.77;;
1601;SDS011;794;48.592;9.634;2023-11-21T08:52:08;1.20;;;1.10;;
1601;SDS011;794;48.592;9.634;2023-11-21T08:54:37;1.20;;;0.90;;
1601;SDS011;794;48.592;9.634;2023-11-21T08:57:04;1.77;;;1.67;;
1601;SDS011;794;48.592;9.634;2023-11-21T08:59:31;1.80;;;1.17;;
1601;SDS011;794;48.592;9.634;2023-11-21T09:01:58;1.83;;;1.07;;
1601;SDS011;794;48.592;9.634;2023-11-21T09:04:28;1.57;;;0.90;;
1601;SDS011;794;48.592;9.634;2023-11-21T09:06:56;0.80;;;0.63;;
1601;SDS011;794;48.592;9.634;2023-11-21T09:09:25;1.30;;;1.20;;
1601;SDS011;794;48.592;9.634;2023-11-21T09:11:56;2.23;;;1.23;;
1601;SDS011;794;48.592;9.634;2023-11-21T09:14:28;4.93;;;2.40;;
1601;SDS011;794;48.592;9.634;2023-11-21T09:16:58;2.20;;;1.83;;
1601;SDS011;794;48.592;9.634;2023-11-21T09:19:30;1.17;;;1.07;;
1601;SDS011;794;48.592;9.634;2023-11-21T09:21:57;1.37;;;1.27;;
1601;SDS011;794;48.592;9.634;2023-11-21T09:24:25;1.23;;;0.80;;
1601;SDS011;794;48.592;9.634;2023-11-21T09:26:53;8.53;;;1.00;;
1601;SDS011;794;48.592;9.634;2023-11-21T09:29:20;0.90;;;0.80;;
1601;SDS011;794;48.592;9.634;2023-11-21T09:31:48;1.90;;;0.90;;
1601;SDS011;794;48.592;9.634;2023-11-21T09:34:16;1.90;;;1.70;;
1601;SDS011;794;48.592;9.634;2023-11-21T09:36:47;1.10;;;1.00;;
1601;SDS011;794;48.592;9.634;2023-11-21T09:39:14;0.80;;;0.80;;
1601;SDS011;794;48.592;9.634;2023-11-21T09:41:43;4.60;;;1.33;;
1601;SDS011;794;48.592;9.634;2023-11-21T09:44:13;0.70;;;0.67;;
1601;SDS011;794;48.592;9.634;2023-11-21T09:46:41;0.83;;;0.80;;
1601;SDS011;794;48.592;9.634;2023-11-21T09:49:21;0.87;;;0.87;;
1601;SDS011;794;48.592;9.634;2023-11-21T09:52:00;1.03;;;0.50;;
1601;SDS011;794;48.592;9.634;2023-11-21T09:54:45;0.60;;;0.53;;
1601;SDS011;794;48.592;9.634;2023-11-21T09:57:14;1.07;;;0.60;;
1601;SDS011;794;48.592;9.634;2023-11-21T09:59:43;0.60;;;0.57;;
1601;SDS011;794;48.592;9.634;2023-11-21T10:02:14;0.93;;;0.50;;
1601;SDS011;794;48.592;9.634;2023-11-21T10:04:45;0.73;;;0.70;;
1601;SDS011;794;48.592;9.634;2023-11-21T10:07:14;0.83;;;0.73;;
1601;SDS011;794;48.592;9.634;2023-11-21T10:09:50;0.90;;;0.90;;
1601;SDS011;794;48.592;9.634;2023-11-21T10:12:21;2.27;;;0.77;;
1601;SDS011;794;48.592;9.634;2023-11-21T10:14:53;0.90;;;0.50;;
1601;SDS011;794;48.592;9.634;2023-11-21T10:17:21;1.00;;;0.83;;
1601;SDS011;794;48.592;9.634;2023-11-21T10:19:51;0.60;;;0.50;;
1601;SDS011;794;48.592;9.634;2023-11-21T10:22:22;0.70;;;0.50;;
1601;SDS011;794;48.592;9.634;2023-11-21T10:24:49;0.90;;;0.50;;
1601;SDS011;794;48.592;9.634;2023-11-21T10:27:18;1.73;;;0.70;;
1601;SDS011;794;48.592;9.634;2023-11-21T10:29:48;0.70;;;0.70;;
1601;SDS011;794;48.592;9.634;2023-11-21T10:32:20;0.70;;;0.50;;
1601;SDS011;794;48.592;9.634;2023-11-21T10:34:57;0.60;;;0.57;;
1601;SDS011;794;48.592;9.634;2023-11-21T10:37:27;0.60;;;0.60;;
1601;SDS011;794;48.592;9.634;2023-11-21T10:39:57;3.80;;;0.80;;
1601;SDS011;794;48.592;9.634;2023-11-21T10:42:24;0.63;;;0.60;;
1601;SDS011;794;48.592;9.634;2023-11-21T10:44:52;1.23;;;0.90;;
1601;SDS011;794;48.592;9.634;2023-11-21T10:47:21;1.10;;;1.00;;
1601;SDS011;794;48.592;9.634;2023-11-21T10:49:49;1.37;;;0.80;;
1601;SDS011;794;48.592;9.634;2023-11-21T10:52:19;2.00;;;1.03;;
1601;SDS011;794;48.592;9.634;2023-11-21T10:54:46;5.50;;;0.77;;
1601;SDS011;794;48.592;9.634;2023-11-21T10:57:17;0.90;;;0.80;;
1601;SDS011;794;48.592;9.634;2023-11-21T10:59:47;1.47;;;0.70;;
1601;SDS011;794;48.592;9.634;2023-11-21T11:02:21;0.77;;;0.70;;
1601;SDS011;794;48.592;9.634;2023-11-21T11:04:51;1.63;;;0.90;;
1601;SDS011;794;48.592;9.634;2023-11-21T11:07:24;0.70;;;0.70;;
1601;SDS011;794;48.592;9.634;2023-11-21T11:09:55;0.60;;;0.60;;
1601;SDS011;794;48.592;9.634;2023-11-21T11:12:23;1.97;;;1.87;;
1601;SDS011;794;48.592;9.634;2023-11-21T11:14:50;1.53;;;0.73;;
1601;SDS011;794;48.592;9.634;2023-11-21T11:17:18;2.80;;;0.73;;
1601;SDS011;794;48.592;9.634;2023-11-21T11:19:46;1.30;;;0.90;;
1601;SDS011;794;48.592;9.634;2023-11-21T11:22:19;2.17;;;1.10;;
1601;SDS011;794;48.592;9.634;2023-11-21T11:24:58;1.03;;;0.93;;
1601;SDS011;794;48.592;9.634;2023-11-21T11:27:40;0.90;;;0.90;;
1601;SDS011;794;48.592;9.634;2023-11-21T11:30:15;1.00;;;1.00;;
1601;SDS011;794;48.592;9.634;2023-11-21T11:32:47;1.10;;;1.00;;
1601;SDS011;794;48.592;9.634;2023-11-21T11:35:23;0.90;;;0.90;;
1601;SDS011;794;48.592;9.634;2023-11-21T11:37:55;0.70;;;0.70;;
1601;SDS011;794;48.592;9.634;2023-11-21T11:40:25;1.10;;;0.93;;
1601;SDS011;794;48.592;9.634;2023-11-21T11:42:58;1.13;;;0.70;;
1601;SDS011;794;48.592;9.634;2023-11-21T11:45:31;1.30;;;0.93;;
1601;SDS011;794;48.592;9.634;2023-11-21T11:48:00;0.80;;;0.80;;
1601;SDS011;794;48.592;9.634;2023-11-21T11:50:29;1.37;;;0.93;;
1601;SDS011;794;48.592;9.634;2023-11-21T11:53:11;0.70;;;0.70;;
1601;SDS011;794;48.592;9.634;2023-11-21T11:55:38;0.70;;;0.70;;
1601;SDS011;794;48.592;9.634;2023-11-21T11:58:06;0.70;;;0.70;;
1601;SDS011;794;48.592;9.634;2023-11-21T12:00:38;1.67;;;1.50;;
1601;SDS011;794;48.592;9.634;2023-11-21T12:03:07;1.73;;;1.47;;
1601;SDS011;794;48.592;9.634;2023-11-21T12:05:35;0.80;;;0.70;;
1601;SDS011;794;48.592;9.634;2023-11-21T12:08:08;1.80;;;1.20;;
1601;SDS011;794;48.592;9.634;2023-11-21T12:10:35;1.10;;;1.00;;
1601;SDS011;794;48.592;9.634;2023-11-21T12:13:06;1.37;;;0.80;;
1601;SDS011;794;48.592;9.634;2023-11-21T12:15:36;0.77;;;0.77;;
1601;SDS011;794;48.592;9.634;2023-11-21T12:18:04;1.00;;;0.87;;
1601;SDS011;794;48.592;9.634;2023-11-21T12:20:31;0.80;;;0.80;;
1601;SDS011;794;48.592;9.634;2023-11-21T12:23:05;1.67;;;1.07;;
1601;SDS011;794;48.592;9.634;2023-11-21T12:25:34;1.80;;;0.93;;
1601;SDS011;794;48.592;9.634;2023-11-21T12:28:02;1.03;;;1.03;;
1601;SDS011;794;48.592;9.634;2023-11-21T12:30:33;2.40;;;0.80;;
1601;SDS011;794;48.592;9.634;2023-11-21T12:33:01;1.00;;;0.80;;
1601;SDS011;794;48.592;9.634;2023-11-21T12:35:29;1.10;;;0.80;;
1601;SDS011;794;48.592;9.634;2023-11-21T12:38:00;1.30;;;1.20;;
1601;SDS011;794;48.592;9.634;2023-11-21T12:40:30;2.40;;;0.90;;
1601;SDS011;794;48.592;9.634;2023-11-21T12:43:06;1.33;;;1.07;;
1601;SDS011;794;48.592;9.634;2023-11-21T12:45:34;1.13;;;0.90;;
1601;SDS011;794;48.592;9.634;2023-11-21T12:48:04;1.23;;;0.97;;
1601;SDS011;794;48.592;9.634;2023-11-21T12:50:34;0.87;;;0.80;;
1601;SDS011;794;48.592;9.634;2023-11-21T12:53:04;1.20;;;1.10;;
1601;SDS011;794;48.592;9.634;2023-11-21T12:55:35;4.30;;;1.00;;
1601;SDS011;794;48.592;9.634;2023-11-21T12:58:05;1.80;;;1.00;;
1601;SDS011;794;48.592;9.634;2023-11-21T13:00:34;1.23;;;1.13;;
1601;SDS011;794;48.592;9.634;2023-11-21T13:03:05;1.37;;;1.27;;
1601;SDS011;794;48.592;9.634;2023-11-21T13:05:33;1.73;;;1.00;;
1601;SDS011;794;48.592;9.634;2023-11-21T13:08:03;1.37;;;1.07;;
1601;SDS011;794;48.592;9.634;2023-11-21T13:10:33;1.27;;;1.17;;
1601;SDS011;794;48.592;9.634;2023-11-21T13:13:04;3.70;;;1.23;;
1601;SDS011;794;48.592;9.634;2023-11-21T13:15:34;1.13;;;1.03;;
1601;SDS011;794;48.592;9.634;2023-11-21T13:18:01;1.73;;;1.43;;
1601;SDS011;794;48.592;9.634;2023-11-21T13:20:30;0.97;;;0.87;;
1601;SDS011;794;48.592;9.634;2023-11-21T13:23:00;1.10;;;1.00;;
1601;SDS011;794;48.592;9.634;2023-11-21T13:25:28;1.30;;;1.20;;
1601;SDS011;794;48.592;9.634;2023-11-21T13:28:18;1.17;;;1.10;;
1601;SDS011;794;48.592;9.634;2023-11-21T13:30:46;1.00;;;1.00;;
1601;SDS011;794;48.592;9.634;2023-11-21T13:33:17;1.17;;;0.97;;
1601;SDS011;794;48.592;9.634;2023-11-21T13:35:47;1.80;;;1.30;;
1601;SDS011;794;48.592;9.634;2023-11-21T13:38:18;1.53;;;1.43;;
1601;SDS011;794;48.592;9.634;2023-11-21T13:40:57;3.40;;;1.20;;
1601;SDS011;794;48.592;9.634;2023-11-21T13:43:30;1.30;;;1.20;;
1601;SDS011;794;48.592;9.634;2023-11-21T13:45:58;1.47;;;1.37;;
1601;SDS011;794;48.592;9.634;2023-11-21T13:48:29;2.13;;;1.57;;
1601;SDS011;794;48.592;9.634;2023-11-21T13:51:07;1.13;;;1.07;;
1601;SDS011;794;48.592;9.634;2023-11-21T13:54:05;1.40;;;1.30;;
1601;SDS011;794;48.592;9.634;2023-11-21T13:56:35;1.50;;;1.40;;
1601;SDS011;794;48.592;9.634;2023-11-21T13:59:06;3.90;;;3.07;;
1601;SDS011;794;48.592;9.634;2023-11-21T14:01:46;2.20;;;1.93;;
1601;SDS011;794;48.592;9.634;2023-11-21T14:04:24;1.30;;;1.20;;
1601;SDS011;794;48.592;9.634;2023-11-21T14:07:11;2.43;;;2.27;;
1601;SDS011;794;48.592;9.634;2023-11-21T14:09:51;3.23;;;2.03;;
1601;SDS011;794;48.592;9.634;2023-11-21T14:12:19;7.20;;;3.47;;
1601;SDS011;794;48.592;9.634;2023-11-21T14:14:49;3.00;;;2.80;;
1601;SDS011;794;48.592;9.634;2023-11-21T14:17:21;3.03;;;1.63;;
1601;SDS011;794;48.592;9.634;2023-11-21T14:19:49;1.73;;;1.63;;
1601;SDS011;794;48.592;9.634;2023-11-21T14:22:16;1.83;;;1.60;;
1601;SDS011;794;48.592;9.634;2023-11-21T14:24:44;2.40;;;2.20;;
1601;SDS011;794;48.592;9.634;2023-11-21T14:27:12;3.00;;;2.10;;
1601;SDS011;794;48.592;9.634;2023-11-21T14:29:40;2.43;;;1.93;;
1601;SDS011;794;48.592;9.634;2023-11-21T14:32:11;3.10;;;2.47;;
1601;SDS011;794;48.592;9.634;2023-11-21T14:34:39;2.37;;;2.10;;
1601;SDS011;794;48.592;9.634;2023-11-21T14:37:08;2.90;;;2.60;;
1601;SDS011;794;48.592;9.634;2023-11-21T14:39:40;2.60;;;2.37;;
1601;SDS011;794;48.592;9.634;2023-11-21T14:42:14;4.20;;;3.90;;
1601;SDS011;794;48.592;9.634;2023-11-21T14:44:49;3.67;;;2.60;;
1601;SDS011;794;48.592;9.634;2023-11-21T14:47:18;2.23;;;2.10;;
1601;SDS011;794;48.592;9.634;2023-11-21T14:49:50;5.00;;;2.60;;
1601;SDS011;794;48.592;9.634;2023-11-21T14:52:18;2.67;;;2.47;;
1601;SDS011;794;48.592;9.634;2023-11-21T14:54:58;2.50;;;2.30;;
1601;SDS011;794;48.592;9.634;2023-11-21T14:57:48;2.87;;;2.60;;
1601;SDS011;794;48.592;9.634;2023-11-21T15:00:15;3.60;;;2.73;;
1601;SDS011;794;48.592;9.634;2023-11-21T15:03:10;4.23;;;2.83;;
1601;SDS011;794;48.592;9.634;2023-11-21T15:05:49;3.00;;;2.80;;
1601;SDS011;794;48.592;9.634;2023-11-21T15:08:15;2.23;;;2.03;;
1601;SDS011;794;48.592;9.634;2023-11-21T15:10:51;2.40;;;1.33;;
1601;SDS011;794;48.592;9.634;2023-11-21T15:13:19;4.73;;;1.80;;
1601;SDS011;794;48.592;9.634;2023-11-21T15:15:47;1.00;;;0.90;;
1601;SDS011;794;48.592;9.634;2023-11-21T15:18:14;1.50;;;1.40;;
1601;SDS011;794;48.592;9.634;2023-11-21T15:20:42;1.60;;;1.50;;
1601;SDS011;794;48.592;9.634;2023-11-21T15:23:09;1.60;;;1.50;;
1601;SDS011;794;48.592;9.634;2023-11-21T15:25:37;1.00;;;1.00;;
1601;SDS011;794;48.592;9.634;2023-11-21T15:28:05;0.80;;;0.80;;
1601;SDS011;794;48.592;9.634;2023-11-21T15:30:32;0.97;;;0.90;;
1601;SDS011;794;48.592;9.634;2023-11-21T15:32:59;1.87;;;0.70;;
1601;SDS011;794;48.592;9.634;2023-11-21T15:35:30;3.63;;;1.17;;
1601;SDS011;794;48.592;9.634;2023-11-21T15:37:58;0.87;;;0.87;;
1601;SDS011;794;48.592;9.634;2023-11-21T15:40:25;1.20;;;1.10;;
1601;SDS011;794;48.592;9.634;2023-11-21T15:42:52;1.00;;;0.90;;
1601;SDS011;794;48.592;9.634;2023-11-21T15:45:19;1.50;;;1.40;;
1601;SDS011;794;48.592;9.634;2023-11-21T15:47:49;1.17;;;1.10;;